My Meet Scores
Maya Boryczka, Gym Kinetics Gymnastics - MyMeetScores.com
Top100 | Top Teams | Upcoming Meets | Completed Meets | Latest | Add Scores | Help| Support | Bookmark and Share

Maya Boryczka, Gym Kinetics Gymnastics
Personal Bests
LevelVault BarsBeamFloorAA
39.7009.500 9.6759.65038.050
49.3759.375 9.7259.25037.725
59.5759.275 9.4009.05037.175
Meet Scores
Date Meet Team Session Level Division Vault Bars Beam Floor AA
2021-03-18 Level 5 & Xcel Gold State Gym Kinetics Gymnastics 2 5 Sr A 9.575 3 9.150 17 9.400 4 9.050 17T 37.175 8
2021-02-26 Kinetic Classic 2021 Gym Kinetics Gymnastics 11 5 Older 9.150 9 9.275 10 9.000 11T 8.850 16 36.275 11
2021-02-12 Harley Meet Women - Midwest Twisters Gym Kinetics Gymnastics O01 5 Jr B 8.950 3 9.200 6 8.950 6T 8.550 6 35.650 4
2021-01-21 King Arthur Invitational Gym Kinetics Gymnastics 6 5 JR 9.325 2 9.100 4 9.200 3T 9.050 7T 36.675 3
2021-01-14 2021 Bravo Classic Gym Kinetics Gymnastics 9 5 Jr 9.150 2 8.600 9 9.125 8 8.650 9T 35.525 8
2020-12-18 Aspire Classic Gym Kinetics Gymnastics 2 5 Younger 9.350 5T 8.850 9T 9.350 4 8.800 11* 36.350 4T
2020-03-06 Illinois Level 4 State Championships Gym Kinetics Gymnastics 4 4 Jr A 9.375 5 9.375 8 9.725 5 9.250 13T 37.725 6
2020-02-21 Kinetic Classic Gym Kinetics Gymnastics 06 4 Middle 9.000 16T 9.275 28 8.700 67T 9.075 30 36.050 34T
2020-01-31 Chow's Challenge Gym Kinetics Gymnastics B2 4 Jr B 9.150 1 9.100 6T 9.100 5T 9.150 5 36.500 3
2020-01-17 2020 Bravo Classic Gym Kinetics Gymnastics 5B 4 Child 9.150 5 9.325 7T 9.300 2 9.250 4 37.025 2
2020-01-10 Leenda's Island Adventure Gym Kinetics Gymnastics PG5 4 10 Year Ol 8.825 2 9.275 3 9.425 3 8.925 8 36.450 2
2019-12-20 Aspire Classic - 2019 Gym Kinetics Gymnastics 8A 4 Middle 8.800 5 9.225 5 9.600 1 8.675 14T 36.300 2
2019-12-06 Ultimate Wish Classic Gym Kinetics Gymnastics 2 4 Jr C 9.100 1 9.075 6 9.675 1 8.925 4 36.775 2
2019-03-08 2019 Illinois Level 3 State Championship Gym Kinetics Gymnastics 3 3 Jr B 9.700 1 9.500 10 9.050 9T 9.550 5 37.800 6
2019-02-23 Kinetic Classic 2019 Gym Kinetics Gymnastics 1 3 Middle 9.325 3 9.275 9 9.575 1 9.550 2 37.725 1
2019-02-08 Midwest Twisters Harley Meet Womens Gym Kinetics Gymnastics T07 3 9 yrs. 9.525 1 8.750 12 9.625 1 8.925 12 36.825 5
2019-01-18 2019 Bravo Classic Gym Kinetics Gymnastics 6B 3 Jr 9.475 4 9.325 3 9.550 1 9.350 3T 37.700 2
2019-01-11 St Jude Benefit Meet Gym Kinetics Gymnastics 2A 3 Jr C 9.400 2T 8.800 11 9.050 7T 9.500 1T 36.750 5
2018-12-14 2018 Aspire Classic Gym Kinetics Gymnastics 10A 3 Older 9.650 1 9.075 12 9.675 1 9.650 3 38.050 1
2018-05-03 Illinois USA Gymnastics Level 3 State Championships Gym Kinetics Gymnastics 7 3 Ch F 9.650 4T 9.375 11 8.425 18 8.850 23 36.300 15
2018-02-23 Kinetic Classic Gym Kinetics Gymnastics 4 3 Younger 9.150 29T 9.000 60T 9.125 33T 9.275 44T 36.550 38
2018-02-09 Arizona Sunrays Classic Rock Invitational Gym Kinetics Gymnastics R02 3 ChB 9.350 2 8.675 7T 7.600 8 9.375 2 35.000 6
2018-02-03 Midwest Games Gym Kinetics Gymnastics 4 3 JR B 9.300 2 8.400 9 9.075 3 8.900 8 35.675 7
2018-01-19 2018 Bravo Classic Gym Kinetics Gymnastics 5B 3 Child 9.100 9 8.850 9T 8.200 14 8.525 11 34.675 11
2017-12-15 2017 Aspire Classic Gym Kinetics Gymnastics 10A 3 Middle 9.375 3 9.000 11T 8.225 15 9.350 7 35.950 9T
Get your scores on
a t-shirt, pin, or hoodie